createdAt,value
2023-10-13T00:02:24.154Z,99516.72
2023-10-13T00:04:55.535Z,99518.41
2023-10-13T00:07:25.843Z,99506.25
2023-10-13T00:10:00.832Z,99497.47
2023-10-13T00:12:33.058Z,99497.03
2023-10-13T00:15:05.943Z,99491.34
2023-10-13T00:17:37.864Z,99480.25
2023-10-13T00:20:14.031Z,99475.66
2023-10-13T00:22:45.920Z,99472.69
2023-10-13T00:25:27.766Z,99476.28
2023-10-13T00:27:59.170Z,99472.47
2023-10-13T00:30:34.550Z,99454.25
2023-10-13T00:33:05.960Z,99451.31
2023-10-13T00:35:43.637Z,99433.09
2023-10-13T00:38:18.342Z,99413.19
2023-10-13T00:40:55.938Z,99423.25
2023-10-13T00:43:33.357Z,99404.81
2023-10-13T00:46:14.570Z,99388.47
2023-10-13T00:48:47.015Z,99383.84
2023-10-13T00:51:33.538Z,99370.25
2023-10-13T00:54:12.611Z,99368.38
2023-10-13T00:56:49.980Z,99363.38
2023-10-13T00:59:19.107Z,99356.41
2023-10-13T01:01:55.551Z,99347.81
2023-10-13T01:04:26.429Z,99332.09
2023-10-13T01:06:56.828Z,99319.28
2023-10-13T01:09:26.431Z,99303.34
2023-10-13T01:12:02.254Z,99295.41
2023-10-13T01:14:30.464Z,99295.34
2023-10-13T01:17:02.949Z,99283.97
2023-10-13T01:19:30.819Z,99285.66
2023-10-13T01:22:04.122Z,99292.75
2023-10-13T01:24:36.462Z,99280.38
2023-10-13T01:27:18.997Z,99279.28
2023-10-13T01:29:50.414Z,99272.31
2023-10-13T01:32:22.508Z,99272.31
2023-10-13T01:34:51.275Z,99265.84
2023-10-13T01:37:21.614Z,99256.59
2023-10-13T01:39:52.342Z,99242.97
2023-10-13T01:42:25.668Z,99235.16
2023-10-13T01:44:54.432Z,99227.84
2023-10-13T01:47:25.193Z,99213.16
2023-10-13T01:49:53.044Z,99208.78
2023-10-13T01:52:26.386Z,99197.63
2023-10-13T01:54:59.160Z,99186.75
2023-10-13T01:57:29.611Z,99173.97
2023-10-13T01:59:57.344Z,99168.28
2023-10-13T02:02:32.985Z,99162.00
2023-10-13T02:05:02.475Z,99155.50
2023-10-13T02:07:36.409Z,99146.03
2023-10-13T02:10:07.932Z,99138.69
2023-10-13T02:12:44.183Z,99126.13
2023-10-13T02:15:22.577Z,99121.75
2023-10-13T02:17:56.557Z,99107.28
2023-10-13T02:20:26.927Z,99109.78
2023-10-13T02:22:57.249Z,99085.88
2023-10-13T02:25:37.242Z,99083.38
2023-10-13T02:28:10.281Z,99076.88
2023-10-13T02:30:40.032Z,99069.53
2023-10-13T02:33:13.210Z,99061.13
2023-10-13T02:35:45.019Z,99055.69
2023-10-13T02:38:16.853Z,99048.34
2023-10-13T02:40:47.197Z,99045.59
2023-10-13T02:43:17.729Z,99028.22
2023-10-13T02:45:59.207Z,99015.63
2023-10-13T02:48:32.085Z,99005.94
2023-10-13T02:51:03.324Z,99000.25
2023-10-13T02:53:33.769Z,98994.81
2023-10-13T02:56:07.389Z,98985.31
2023-10-13T02:58:45.456Z,98984.25
2023-10-13T03:01:19.054Z,98975.84
2023-10-13T03:03:55.817Z,98964.09
2023-10-13T03:06:25.502Z,98968.28
2023-10-13T03:08:58.176Z,98958.19
2023-10-13T03:11:33.744Z,98953.09
2023-10-13T03:14:08.088Z,98946.84
2023-10-13T03:16:36.308Z,98933.66
2023-10-13T03:19:09.357Z,98928.59
2023-10-13T03:21:38.249Z,98927.25
2023-10-13T03:24:14.979Z,98908.44
2023-10-13T03:26:53.691Z,98907.59
2023-10-13T03:29:25.546Z,98905.72
2023-10-13T03:32:08.265Z,98895.66
2023-10-13T03:34:42.486Z,98880.94
2023-10-13T03:37:20.303Z,98879.31
2023-10-13T03:39:52.722Z,98871.72
2023-10-13T03:42:25.927Z,98866.72
2023-10-13T03:44:56.892Z,98865.69
2023-10-13T03:47:33.759Z,98860.00
2023-10-13T03:50:18.725Z,98853.69
2023-10-13T03:52:50.059Z,98852.28
2023-10-13T03:55:21.382Z,98835.69
2023-10-13T03:57:54.235Z,98836.75
2023-10-13T04:00:26.600Z,98838.19
2023-10-13T04:03:09.399Z,98823.47
2023-10-13T04:05:47.010Z,98830.84
2023-10-13T04:08:29.885Z,98837.94
2023-10-13T04:11:14.320Z,98788.88
2023-10-13T04:13:59.550Z,98776.34
2023-10-13T04:16:39.590Z,98772.78
2023-10-13T04:19:22.196Z,98769.81
2023-10-13T04:22:15.633Z,98763.53
2023-10-13T04:25:06.929Z,98756.28
2023-10-13T04:27:54.937Z,98752.00
2023-10-13T04:30:40.054Z,98757.44
2023-10-13T04:33:18.823Z,98753.44
2023-10-13T04:35:59.374Z,98716.34
2023-10-13T04:38:35.377Z,98711.69
2023-10-13T04:41:11.399Z,98718.81
2023-10-13T04:43:53.828Z,98724.28
2023-10-13T04:46:55.685Z,98710.63
2023-10-13T04:49:37.139Z,98685.53
2023-10-13T04:52:14.401Z,98690.47
2023-10-13T04:54:51.268Z,98694.28
2023-10-13T04:57:26.720Z,98691.09
2023-10-13T05:00:19.248Z,98677.69
2023-10-13T05:03:13.630Z,98666.56
2023-10-13T05:06:09.443Z,98665.13
2023-10-13T05:08:52.127Z,98673.88
2023-10-13T05:11:34.802Z,98669.75
2023-10-13T05:14:17.512Z,98647.47
2023-10-13T05:17:00.261Z,98645.31
2023-10-13T05:19:45.606Z,98654.56
2023-10-13T05:22:28.335Z,98652.41
2023-10-13T05:25:11.037Z,98654.09
2023-10-13T05:27:53.565Z,98646.47
2023-10-13T05:30:36.434Z,98641.84
2023-10-13T05:33:34.638Z,98645.97
2023-10-13T05:36:26.829Z,98641.59
2023-10-13T05:39:09.494Z,98638.41
2023-10-13T05:41:52.192Z,98633.75
2023-10-13T05:44:39.043Z,98632.94
2023-10-13T05:47:22.138Z,98628.06
2023-10-13T05:50:06.802Z,98616.59
2023-10-13T05:52:52.116Z,98611.38
2023-10-13T05:55:34.934Z,98603.53
2023-10-13T05:58:17.608Z,98603.25
2023-10-13T06:01:00.412Z,98606.84
2023-10-13T06:03:43.233Z,98597.00
2023-10-13T06:06:25.983Z,98595.69
2023-10-13T06:09:11.312Z,98585.03
2023-10-13T06:11:53.991Z,98582.31
2023-10-13T06:14:36.735Z,98575.75
2023-10-13T06:17:19.502Z,98578.00
2023-10-13T06:20:02.256Z,98568.16
2023-10-13T06:22:44.973Z,98578.00
2023-10-13T06:25:30.455Z,98570.38
2023-10-13T06:28:13.185Z,98572.31
2023-10-13T06:30:47.338Z,98568.50
2023-10-13T06:33:18.313Z,98575.63
2023-10-13T06:35:57.668Z,98567.66
2023-10-13T06:38:32.285Z,98575.63
2023-10-13T06:41:06.739Z,98576.09
2023-10-13T06:43:41.196Z,98581.09
2023-10-13T06:46:16.322Z,98569.38
2023-10-13T06:48:46.355Z,98566.63
2023-10-13T06:51:23.557Z,98571.56
2023-10-13T06:53:58.147Z,98572.13
2023-10-13T06:56:31.954Z,98571.91
2023-10-13T06:59:06.163Z,98570.00
2023-10-13T07:01:40.398Z,98580.06
2023-10-13T07:04:15.060Z,98567.25
2023-10-13T07:06:49.207Z,98572.47
2023-10-13T07:09:40.811Z,98569.75
2023-10-13T07:12:17.978Z,98568.34
2023-10-13T07:14:54.808Z,98577.09
2023-10-13T07:17:27.788Z,98578.75
2023-10-13T07:20:07.887Z,98585.03
2023-10-13T07:22:41.667Z,98586.69
2023-10-13T07:25:25.202Z,98576.59
2023-10-13T07:27:58.538Z,98587.19
2023-10-13T07:30:32.372Z,98586.19
2023-10-13T07:33:02.708Z,98587.56
2023-10-13T07:35:37.258Z,98589.72
2023-10-13T07:38:09.716Z,98604.03
2023-10-13T07:40:51.499Z,98599.38
2023-10-13T07:43:25.221Z,98606.84
2023-10-13T07:46:00.055Z,98619.91
2023-10-13T07:48:30.445Z,98624.50
2023-10-13T07:51:05.503Z,98627.00
2023-10-13T07:53:40.635Z,98631.78
2023-10-13T07:56:13.299Z,98634.84
2023-10-13T07:58:54.228Z,98640.63
2023-10-13T08:01:26.411Z,98643.34
2023-10-13T08:04:06.262Z,98645.06
2023-10-13T08:06:38.176Z,98642.91
2023-10-13T08:09:30.191Z,98656.06
2023-10-13T08:12:01.447Z,98652.78
2023-10-13T08:14:38.780Z,98648.97
2023-10-13T08:17:12.347Z,98654.72
2023-10-13T08:19:47.388Z,98660.50
2023-10-13T08:22:37.601Z,98658.88
2023-10-13T08:25:45.415Z,98663.09
2023-10-13T08:28:28.162Z,98669.44
2023-10-13T08:31:08.310Z,98661.50
2023-10-13T08:33:39.820Z,98659.66
2023-10-13T08:36:32.342Z,98667.63
2023-10-13T08:39:22.688Z,98665.44
2023-10-13T08:42:13.816Z,98662.53
2023-10-13T08:44:53.612Z,98659.88
2023-10-13T08:47:37.239Z,98659.94
2023-10-13T08:50:30.729Z,98661.59
2023-10-13T08:53:10.965Z,98678.13
2023-10-13T08:56:02.418Z,98688.97
2023-10-13T08:58:53.041Z,98705.19
2023-10-13T09:01:38.889Z,98713.63
2023-10-13T09:04:29.192Z,98698.50
2023-10-13T09:07:10.286Z,98690.66
2023-10-13T09:10:12.942Z,98691.53
2023-10-13T09:12:54.439Z,98697.88
2023-10-13T09:15:47.253Z,98705.03
2023-10-13T09:18:44.285Z,98692.47
2023-10-13T09:21:47.535Z,98690.94
2023-10-13T09:24:24.162Z,98702.53
2023-10-13T09:26:57.603Z,98693.28
2023-10-13T09:29:30.645Z,98696.88
2023-10-13T09:32:05.366Z,98700.50
2023-10-13T09:34:42.190Z,98689.88
2023-10-13T09:37:16.459Z,98700.63
2023-10-13T09:39:56.129Z,98717.56
2023-10-13T09:42:25.245Z,98708.00
2023-10-13T09:44:57.196Z,98701.44
2023-10-13T09:47:32.592Z,98696.84
2023-10-13T09:50:15.560Z,98709.38
2023-10-13T09:52:48.168Z,98715.72
2023-10-13T09:55:31.132Z,98717.66
2023-10-13T09:58:12.101Z,98720.94
2023-10-13T10:00:51.011Z,98720.31
2023-10-13T10:03:33.834Z,98715.97
2023-10-13T10:06:17.455Z,98721.75
2023-10-13T10:08:52.050Z,98723.44
2023-10-13T10:12:19.852Z,98751.00
2023-10-13T10:15:11.964Z,98748.03
2023-10-13T10:17:47.127Z,98745.06
2023-10-13T10:20:34.085Z,98735.25
2023-10-13T10:23:06.185Z,98736.31
2023-10-13T10:25:45.903Z,98748.59
2023-10-13T10:28:17.365Z,98764.16
2023-10-13T10:30:47.988Z,98751.06
2023-10-13T10:33:20.040Z,98739.34
2023-10-13T10:35:52.394Z,98760.97
2023-10-13T10:38:34.352Z,98772.41
2023-10-13T10:41:13.992Z,98760.16
2023-10-13T10:43:48.033Z,98761.78
2023-10-13T10:46:20.330Z,98768.38
2023-10-13T10:48:57.899Z,98768.94
2023-10-13T10:51:32.526Z,98770.81
2023-10-13T10:54:12.899Z,98761.88
2023-10-13T10:56:45.797Z,98758.91
2023-10-13T10:59:19.981Z,98760.56
2023-10-13T11:01:52.683Z,98758.50
2023-10-13T11:04:35.336Z,98761.25
2023-10-13T11:07:07.935Z,98752.47
2023-10-13T11:09:47.359Z,98743.75
2023-10-13T11:12:25.622Z,98750.34
2023-10-13T11:15:07.969Z,98755.25
2023-10-13T11:17:44.551Z,98746.50
2023-10-13T11:20:27.208Z,98758.50
2023-10-13T11:22:55.375Z,98761.63
2023-10-13T11:25:31.640Z,98767.06
2023-10-13T11:28:19.155Z,98772.97
2023-10-13T11:30:51.741Z,98782.91
2023-10-13T11:33:25.338Z,98774.28
2023-10-13T11:36:05.031Z,98776.13
2023-10-13T11:38:50.920Z,98774.38
2023-10-13T11:41:23.896Z,98766.59
2023-10-13T11:44:08.615Z,98766.28
2023-10-13T11:46:51.507Z,98781.06
2023-10-13T11:49:33.083Z,98781.97
2023-10-13T11:52:17.737Z,98791.34
2023-10-13T11:54:48.882Z,98803.25
2023-10-13T11:57:22.820Z,98797.13
2023-10-13T12:00:17.861Z,98798.44
2023-10-13T12:03:00.766Z,98793.16
2023-10-13T12:05:50.368Z,98802.06
2023-10-13T12:08:24.612Z,98804.06
2023-10-13T12:11:01.558Z,98802.91
2023-10-13T12:13:32.002Z,98806.69
2023-10-13T12:16:10.079Z,98806.69
2023-10-13T12:18:40.462Z,98802.91
2023-10-13T12:21:20.744Z,98798.41
2023-10-13T12:23:52.371Z,98801.56
2023-10-13T12:26:33.752Z,98799.50
2023-10-13T12:29:20.273Z,98811.31
2023-10-13T12:32:07.074Z,98820.03
2023-10-13T12:34:59.014Z,98820.44
2023-10-13T12:37:51.253Z,98823.94
2023-10-13T12:40:35.418Z,98819.94
2023-10-13T12:43:19.685Z,98826.09
2023-10-13T12:46:04.060Z,98828.13
2023-10-13T12:48:53.358Z,98833.56
2023-10-13T12:51:41.829Z,98834.53
2023-10-13T12:54:21.753Z,98835.06
2023-10-13T12:56:58.355Z,98845.22
2023-10-13T12:59:30.734Z,98842.28
2023-10-13T13:02:01.398Z,98846.88
2023-10-13T13:04:38.220Z,98854.16
2023-10-13T13:07:06.076Z,98844.41
2023-10-13T13:09:39.031Z,98852.84
2023-10-13T13:12:10.527Z,98866.38
2023-10-13T13:14:42.716Z,98879.16
2023-10-13T13:17:13.315Z,98878.91
2023-10-13T13:19:46.512Z,98885.75
2023-10-13T13:22:19.052Z,98893.16
2023-10-13T13:24:49.899Z,98894.31
2023-10-13T13:27:23.804Z,98896.78
2023-10-13T13:29:56.359Z,98906.38
2023-10-13T13:32:30.222Z,98903.06
2023-10-13T13:35:06.051Z,98899.72
2023-10-13T13:37:38.889Z,98907.75
2023-10-13T13:40:19.517Z,98909.03
2023-10-13T13:42:50.376Z,98912.44
2023-10-13T13:45:28.913Z,98911.09
2023-10-13T13:47:59.489Z,98903.00
2023-10-13T13:50:39.804Z,98903.94
2023-10-13T13:53:11.238Z,98911.91
2023-10-13T13:55:41.688Z,98920.38
2023-10-13T13:58:14.345Z,98926.72
2023-10-13T14:00:49.869Z,98922.03
2023-10-13T14:03:32.878Z,98929.41
2023-10-13T14:06:07.924Z,98929.41
2023-10-13T14:08:38.249Z,98936.72
2023-10-13T14:11:23.406Z,98940.88
2023-10-13T14:13:51.500Z,98950.69
2023-10-13T14:16:24.452Z,98950.31
2023-10-13T14:18:55.788Z,98952.47
2023-10-13T14:21:29.087Z,98953.31
2023-10-13T14:24:02.099Z,98947.34
2023-10-13T14:26:34.725Z,98954.69
2023-10-13T14:29:09.422Z,98954.47
2023-10-13T14:31:40.825Z,98961.78
2023-10-13T14:34:12.417Z,98951.44
2023-10-13T14:36:49.657Z,98953.09
2023-10-13T14:39:22.379Z,98950.44
2023-10-13T14:41:52.656Z,98951.53
2023-10-13T14:44:28.172Z,98954.25
2023-10-13T14:46:58.781Z,98956.97
2023-10-13T14:49:29.225Z,98957.81
2023-10-13T14:52:02.139Z,98960.31
2023-10-13T14:54:38.956Z,98965.94
2023-10-13T14:57:09.200Z,98964.91
2023-10-13T14:59:40.194Z,98967.41
2023-10-13T15:02:11.009Z,98972.44
2023-10-13T15:04:41.505Z,98980.59
2023-10-13T15:07:16.289Z,98974.56
2023-10-13T15:09:46.860Z,98974.09
2023-10-13T15:12:21.369Z,98978.69
2023-10-13T15:14:55.044Z,98988.72
2023-10-13T15:17:25.821Z,98988.25
2023-10-13T15:19:56.599Z,98986.56
2023-10-13T15:22:29.717Z,98985.13
2023-10-13T15:25:11.006Z,98987.41
2023-10-13T15:27:46.627Z,98981.31
2023-10-13T15:30:25.294Z,98985.72
2023-10-13T15:32:56.674Z,98989.06
2023-10-13T15:35:29.907Z,98996.97
2023-10-13T15:38:03.266Z,99001.13
2023-10-13T15:40:33.878Z,99006.91
2023-10-13T15:43:06.806Z,99005.25
2023-10-13T15:45:40.879Z,99001.94
2023-10-13T15:50:45.997Z,99011.13
2023-10-13T15:53:18.972Z,99022.41
2023-10-13T15:55:49.285Z,99021.81
2023-10-13T15:58:19.638Z,99020.91
2023-10-13T16:00:49.949Z,99024.13
2023-10-13T16:03:20.387Z,99024.13
2023-10-13T16:05:50.748Z,99034.75
2023-10-13T16:08:23.621Z,99032.88
2023-10-13T16:10:53.867Z,99032.88
2023-10-13T16:13:24.211Z,99033.94
2023-10-13T16:15:54.788Z,99042.47
2023-10-13T16:18:25.217Z,99045.00
2023-10-13T16:20:56.066Z,99047.09
2023-10-13T16:23:29.359Z,99055.03
2023-10-13T16:26:02.993Z,99049.00
2023-10-13T16:28:35.921Z,99053.81
2023-10-13T16:31:06.682Z,99051.53
2023-10-13T16:33:37.208Z,99063.03
2023-10-13T16:36:10.045Z,99065.97
2023-10-13T16:38:46.876Z,99070.59
2023-10-13T16:41:17.201Z,99080.81
2023-10-13T16:43:48.978Z,99080.41
2023-10-13T16:46:19.471Z,99090.00
2023-10-13T16:48:49.930Z,99085.63
2023-10-13T16:51:20.469Z,99089.81
2023-10-13T16:53:53.379Z,99096.28
2023-10-13T16:56:23.826Z,99105.69
2023-10-13T16:58:55.829Z,99112.38
2023-10-13T17:01:26.797Z,99110.06
2023-10-13T17:03:57.253Z,99124.50
2023-10-13T17:06:27.674Z,99113.22
2023-10-13T17:09:00.551Z,99112.41
2023-10-13T17:11:30.876Z,99112.63
2023-10-13T17:14:01.167Z,99120.38
2023-10-13T17:16:33.342Z,99124.53
2023-10-13T17:19:03.616Z,99125.38
2023-10-13T17:21:34.123Z,99129.53
2023-10-13T17:24:07.862Z,99132.28
2023-10-13T17:26:38.184Z,99138.75
2023-10-13T17:29:11.171Z,99136.84
2023-10-13T17:31:41.523Z,99137.03
2023-10-13T17:34:11.868Z,99145.78
2023-10-13T17:36:42.162Z,99157.44
2023-10-13T17:39:15.871Z,99155.53
2023-10-13T17:41:46.314Z,99169.72
2023-10-13T17:44:16.583Z,99162.22
2023-10-13T17:46:46.980Z,99163.25
2023-10-13T17:49:20.077Z,99174.69
2023-10-13T17:51:50.422Z,99186.75
2023-10-13T17:54:24.306Z,99195.66
2023-10-13T17:56:54.817Z,99209.81
2023-10-13T17:59:25.102Z,99202.53
2023-10-13T18:01:55.601Z,99213.13
2023-10-13T18:04:26.106Z,99224.75
2023-10-13T18:06:57.695Z,99227.59
2023-10-13T18:09:31.009Z,99238.03
2023-10-13T18:12:01.504Z,99248.19
2023-10-13T18:14:31.867Z,99248.78
2023-10-13T18:17:06.363Z,99254.19
2023-10-13T18:19:37.143Z,99258.59
2023-10-13T18:22:07.774Z,99260.44
2023-10-13T18:24:41.491Z,99267.34
2023-10-13T18:27:11.823Z,99280.06
2023-10-13T18:29:42.231Z,99283.41
2023-10-13T18:32:12.529Z,99290.06
2023-10-13T18:34:48.851Z,99291.75
2023-10-13T18:37:20.340Z,99296.72
2023-10-13T18:39:53.249Z,99297.56
2023-10-13T18:42:24.641Z,99295.66
2023-10-13T18:44:58.021Z,99296.22
2023-10-13T18:47:28.424Z,99310.81
2023-10-13T18:49:58.746Z,99317.44
2023-10-13T18:52:29.075Z,99310.31
2023-10-13T18:55:02.279Z,99317.34
2023-10-13T18:57:32.836Z,99329.41
2023-10-13T19:00:05.228Z,99328.31
2023-10-13T19:02:35.564Z,99332.25
2023-10-13T19:05:05.872Z,99329.94
2023-10-13T19:07:36.173Z,99331.56
2023-10-13T19:10:16.025Z,99338.00
2023-10-13T19:12:50.982Z,99332.34
2023-10-13T19:15:26.553Z,99338.75
2023-10-13T19:17:57.198Z,99332.72
2023-10-13T19:20:28.769Z,99335.38
2023-10-13T19:22:59.078Z,99329.53
2023-10-13T19:25:31.986Z,99335.31
2023-10-13T19:28:02.260Z,99352.56
2023-10-13T19:30:34.215Z,99351.94
2023-10-13T19:33:05.487Z,99355.66
2023-10-13T19:35:35.784Z,99363.47
2023-10-13T19:38:06.302Z,99380.94
2023-10-13T19:40:42.878Z,99378.41
2023-10-13T19:43:16.435Z,99392.97
2023-10-13T19:45:46.994Z,99396.22
2023-10-13T19:48:17.335Z,99413.25
2023-10-13T19:50:47.751Z,99426.53
2023-10-13T19:53:18.172Z,99436.69
2023-10-13T19:55:55.535Z,99442.75
2023-10-13T19:58:28.118Z,99435.66
2023-10-13T20:01:00.617Z,99443.38
2023-10-13T20:03:31.036Z,99451.84
2023-10-13T20:06:01.303Z,99455.47
2023-10-13T20:08:31.596Z,99459.28
2023-10-13T20:11:04.454Z,99466.31
2023-10-13T20:13:36.974Z,99454.28
2023-10-13T20:16:08.533Z,99471.34
2023-10-13T20:18:39.020Z,99473.03
2023-10-13T20:21:09.426Z,99490.91
2023-10-13T20:23:40.561Z,99488.56
2023-10-13T20:26:16.638Z,99490.84
2023-10-13T20:28:46.894Z,99497.25
2023-10-13T20:31:21.459Z,99509.22
2023-10-13T20:33:56.673Z,99504.38
2023-10-13T20:36:28.159Z,99508.47
2023-10-13T20:38:58.586Z,99522.84
2023-10-13T20:41:31.466Z,99533.19
2023-10-13T20:44:02.046Z,99540.63
2023-10-13T20:46:34.947Z,99546.13
2023-10-13T20:49:06.186Z,99557.97
2023-10-13T20:51:36.696Z,99566.72
2023-10-13T20:54:11.958Z,99570.25
2023-10-13T20:56:45.520Z,99578.09
2023-10-13T20:59:16.547Z,99584.41
2023-10-13T21:01:47.184Z,99587.75
2023-10-13T21:04:17.621Z,99595.31
2023-10-13T21:06:51.144Z,99602.94
2023-10-13T21:09:23.933Z,99597.38
2023-10-13T21:11:57.424Z,99604.16
2023-10-13T21:14:27.772Z,99606.88
2023-10-13T21:17:01.521Z,99616.72
2023-10-13T21:19:33.393Z,99618.88
2023-10-13T21:22:09.614Z,99613.47
2023-10-13T21:24:40.515Z,99628.00
2023-10-13T21:27:13.432Z,99629.19
2023-10-13T21:29:45.585Z,99643.75
2023-10-13T21:32:16.384Z,99652.03
2023-10-13T21:34:46.687Z,99646.72
2023-10-13T21:37:16.956Z,99661.88
2023-10-13T21:39:49.292Z,99658.34
2023-10-13T21:42:22.540Z,99666.13
2023-10-13T21:44:57.054Z,99663.81
2023-10-13T21:47:27.787Z,99672.25
2023-10-13T21:49:59.589Z,99674.97
2023-10-13T21:52:29.943Z,99684.06
2023-10-13T21:55:01.130Z,99694.38
2023-10-13T21:57:34.032Z,99695.25
2023-10-13T22:00:13.430Z,99701.47
2023-10-13T22:02:44.737Z,99697.28
2023-10-13T22:05:15.194Z,99706.22
2023-10-13T22:07:48.351Z,99715.31
2023-10-13T22:10:20.652Z,99720.28
2023-10-13T22:12:56.187Z,99727.03
2023-10-13T22:15:29.360Z,99730.78
2023-10-13T22:17:59.727Z,99728.91
2023-10-13T22:20:30.070Z,99726.53
2023-10-13T22:23:01.005Z,99724.88
2023-10-13T22:25:31.610Z,99729.81
2023-10-13T22:28:05.279Z,99740.94
2023-10-13T22:30:35.767Z,99746.34
2023-10-13T22:33:06.254Z,99750.06
2023-10-13T22:35:36.552Z,99751.09
2023-10-13T22:38:08.373Z,99756.47
2023-10-13T22:40:42.033Z,99777.25
2023-10-13T22:43:15.058Z,99770.47
2023-10-13T22:45:45.800Z,99766.28
2023-10-13T22:48:16.260Z,99772.66
2023-10-13T22:50:46.622Z,99779.09
2023-10-13T22:53:16.876Z,99786.53
2023-10-13T22:55:47.943Z,99786.53
2023-10-13T22:58:20.858Z,99793.13
2023-10-13T23:00:56.349Z,99793.97
2023-10-13T23:03:36.197Z,99808.81
2023-10-13T23:06:11.907Z,99819.28
2023-10-13T23:08:43.016Z,99818.28
2023-10-13T23:11:33.154Z,99824.31
2023-10-13T23:14:06.032Z,99820.59
2023-10-13T23:16:37.298Z,99819.63
2023-10-13T23:19:08.138Z,99834.81
2023-10-13T23:21:40.150Z,99835.81
2023-10-13T23:24:13.100Z,99847.25
2023-10-13T23:26:43.734Z,99851.66
2023-10-13T23:29:17.656Z,99851.00
2023-10-13T23:31:48.139Z,99861.44
2023-10-13T23:34:18.423Z,99865.50
2023-10-13T23:36:48.780Z,99867.53
2023-10-13T23:39:34.388Z,99871.09
2023-10-13T23:42:08.857Z,99865.53
2023-10-13T23:44:48.138Z,99884.41
2023-10-13T23:47:27.530Z,99886.78
2023-10-13T23:49:59.735Z,99882.06
2023-10-13T23:52:33.881Z,99892.06
2023-10-13T23:55:08.822Z,99901.66
2023-10-13T23:57:51.743Z,99900.97
